Hussar, Canada
Current Conditions -  °F | °C
As of 5:00 PM on Tuesday 25 Nov 2014 (Local Time) from CYYC Reporting Station
Overcast Overcast  
Wind Chill: 28°   Ceiling: 28000
Heat Index: 28°   Visibility: 30mi
Dew Point: 23°   Wind: 3mph
Humidity: 80%   Direction: 100°E
Pressure: 30.08"   Gusts: NA
Location:  51.03°N, 112.68°W
Report Text: CYYC 260000Z 10003KT 30SM FEW050 SCT090 SCT190 OVC280 M02/M05 A3008 RMK SC1AC3AC1CI4 SC TR SLP236
Loading
Personal Weather Stations






























Interactive Weather Map New forecast layout! Learn more

10-Day Weather Forecast

Advertisements
Track Severe Weather on mobile